sensor_id;sensor_type;location;lat;lon;timestamp;noise_LAeq;noise_LA_min;noise_LA_max;noise_LA01;noise_LA95
37833;Laerm;23678;48.778;9.160;2024-02-28T00:01:17;36.82;30.89;39.58;;
37833;Laerm;23678;48.778;9.160;2024-02-28T00:04:01;36.84;29.92;40.03;;
37833;Laerm;23678;48.778;9.160;2024-02-28T00:06:45;37.51;31.68;42.59;;
37833;Laerm;23678;48.778;9.160;2024-02-28T00:09:32;36.87;29.57;39.70;;
37833;Laerm;23678;48.778;9.160;2024-02-28T00:12:16;36.94;30.89;41.48;;
37833;Laerm;23678;48.778;9.160;2024-02-28T00:15:01;36.98;30.89;42.29;;
37833;Laerm;23678;48.778;9.160;2024-02-28T00:17:44;37.02;30.89;40.53;;
37833;Laerm;23678;48.778;9.160;2024-02-28T00:20:29;36.85;29.92;39.70;;
37833;Laerm;23678;48.778;9.160;2024-02-28T00:23:13;36.83;30.89;39.81;;
37833;Laerm;23678;48.778;9.160;2024-02-28T00:25:57;38.17;32.93;42.59;;
37833;Laerm;23678;48.778;9.160;2024-02-28T00:28:41;37.39;29.92;42.42;;
37833;Laerm;23678;48.778;9.160;2024-02-28T00:31:26;36.96;30.89;42.09;;
37833;Laerm;23678;48.778;9.160;2024-02-28T00:34:10;37.28;29.92;41.30;;
37833;Laerm;23678;48.778;9.160;2024-02-28T00:36:54;37.26;31.68;42.24;;
37833;Laerm;23678;48.778;9.160;2024-02-28T00:39:38;36.80;31.68;39.92;;
37833;Laerm;23678;48.778;9.160;2024-02-28T00:42:25;37.20;23.90;42.22;;
37833;Laerm;23678;48.778;9.160;2024-02-28T00:45:10;36.79;30.89;39.81;;
37833;Laerm;23678;48.778;9.160;2024-02-28T00:47:54;36.80;29.92;39.92;;
37833;Laerm;23678;48.778;9.160;2024-02-28T00:50:38;37.42;31.68;44.31;;
37833;Laerm;23678;48.778;9.160;2024-02-28T00:53:22;36.86;30.89;40.89;;
37833;Laerm;23678;48.778;9.160;2024-02-28T00:56:06;36.87;30.89;40.23;;
37833;Laerm;23678;48.778;9.160;2024-02-28T00:58:50;36.81;30.89;39.70;;
37833;Laerm;23678;48.778;9.160;2024-02-28T01:01:34;36.80;30.89;39.58;;
37833;Laerm;23678;48.778;9.160;2024-02-28T01:04:18;36.86;30.89;39.81;;
37833;Laerm;23678;48.778;9.160;2024-02-28T01:07:02;36.81;30.89;39.92;;
37833;Laerm;23678;48.778;9.160;2024-02-28T01:09:46;36.79;31.68;39.70;;
37833;Laerm;23678;48.778;9.160;2024-02-28T01:12:30;36.79;30.89;39.92;;
37833;Laerm;23678;48.778;9.160;2024-02-28T01:15:14;36.80;30.54;39.70;;
37833;Laerm;23678;48.778;9.160;2024-02-28T01:17:58;36.80;29.92;39.81;;
37833;Laerm;23678;48.778;9.160;2024-02-28T01:20:42;36.84;29.92;39.70;;
37833;Laerm;23678;48.778;9.160;2024-02-28T01:23:27;36.77;26.91;39.58;;
37833;Laerm;23678;48.778;9.160;2024-02-28T01:26:11;36.76;29.92;39.34;;
37833;Laerm;23678;48.778;9.160;2024-02-28T01:28:55;36.81;30.89;39.70;;
37833;Laerm;23678;48.778;9.160;2024-02-28T01:31:39;36.92;29.92;40.33;;
37833;Laerm;23678;48.778;9.160;2024-02-28T01:34:23;36.76;30.89;39.58;;
37833;Laerm;23678;48.778;9.160;2024-02-28T01:37:07;36.92;29.92;41.30;;
37833;Laerm;23678;48.778;9.160;2024-02-28T01:39:51;36.92;29.92;42.29;;
37833;Laerm;23678;48.778;9.160;2024-02-28T01:42:35;36.78;32.35;39.81;;
37833;Laerm;23678;48.778;9.160;2024-02-28T01:45:19;36.90;30.89;40.98;;
37833;Laerm;23678;48.778;9.160;2024-02-28T01:48:03;37.00;31.68;41.89;;
37833;Laerm;23678;48.778;9.160;2024-02-28T01:50:48;36.79;30.89;39.58;;
37833;Laerm;23678;48.778;9.160;2024-02-28T01:53:32;37.07;31.68;40.03;;
37833;Laerm;23678;48.778;9.160;2024-02-28T01:56:16;38.62;29.92;42.98;;
37833;Laerm;23678;48.778;9.160;2024-02-28T01:59:01;37.06;30.89;40.80;;
37833;Laerm;23678;48.778;9.160;2024-02-28T02:01:47;36.80;23.90;39.92;;
37833;Laerm;23678;48.778;9.160;2024-02-28T02:04:31;36.84;29.92;41.82;;
37833;Laerm;23678;48.778;9.160;2024-02-28T02:07:15;36.79;29.92;39.81;;
37833;Laerm;23678;48.778;9.160;2024-02-28T02:09:58;36.82;29.92;39.58;;
37833;Laerm;23678;48.778;9.160;2024-02-28T02:12:42;36.91;30.89;41.14;;
37833;Laerm;23678;48.778;9.160;2024-02-28T02:15:26;37.51;32.35;41.46;;
37833;Laerm;23678;48.778;9.160;2024-02-28T02:18:16;36.84;31.33;39.81;;
37833;Laerm;23678;48.778;9.160;2024-02-28T02:21:02;36.82;30.54;39.70;;
37833;Laerm;23678;48.778;9.160;2024-02-28T02:23:48;36.89;31.68;39.92;;
37833;Laerm;23678;48.778;9.160;2024-02-28T02:26:32;37.28;30.89;42.98;;
37833;Laerm;23678;48.778;9.160;2024-02-28T02:29:16;37.54;30.89;44.35;;
37833;Laerm;23678;48.778;9.160;2024-02-28T02:32:00;37.16;31.68;41.46;;
37833;Laerm;23678;48.778;9.160;2024-02-28T02:34:44;36.94;30.89;39.46;;
37833;Laerm;23678;48.778;9.160;2024-02-28T02:37:28;36.92;32.35;39.81;;
37833;Laerm;23678;48.778;9.160;2024-02-28T02:40:12;36.91;31.33;39.81;;
37833;Laerm;23678;48.778;9.160;2024-02-28T02:42:56;36.96;32.35;40.03;;
37833;Laerm;23678;48.778;9.160;2024-02-28T02:45:40;37.06;32.35;40.23;;
37833;Laerm;23678;48.778;9.160;2024-02-28T02:48:24;37.10;31.68;40.89;;
37833;Laerm;23678;48.778;9.160;2024-02-28T02:51:08;36.95;31.68;39.81;;
37833;Laerm;23678;48.778;9.160;2024-02-28T02:53:52;37.00;30.89;40.03;;
37833;Laerm;23678;48.778;9.160;2024-02-28T02:56:40;36.90;30.89;39.58;;
37833;Laerm;23678;48.778;9.160;2024-02-28T02:59:24;36.94;29.92;39.92;;
37833;Laerm;23678;48.778;9.160;2024-02-28T03:02:08;36.99;30.89;40.43;;
37833;Laerm;23678;48.778;9.160;2024-02-28T03:04:52;36.93;29.92;39.58;;
37833;Laerm;23678;48.778;9.160;2024-02-28T03:07:36;36.94;31.68;39.81;;
37833;Laerm;23678;48.778;9.160;2024-02-28T03:10:20;38.53;32.93;44.23;;
37833;Laerm;23678;48.778;9.160;2024-02-28T03:13:04;37.03;31.68;43.63;;
37833;Laerm;23678;48.778;9.160;2024-02-28T03:15:50;37.36;31.68;42.65;;
37833;Laerm;23678;48.778;9.160;2024-02-28T03:18:34;37.59;31.68;42.29;;
37833;Laerm;23678;48.778;9.160;2024-02-28T03:21:18;36.96;32.35;39.92;;
37833;Laerm;23678;48.778;9.160;2024-02-28T03:24:04;37.06;31.68;40.89;;
37833;Laerm;23678;48.778;9.160;2024-02-28T03:26:48;37.21;30.89;41.75;;
37833;Laerm;23678;48.778;9.160;2024-02-28T03:29:32;38.04;32.35;41.96;;
37833;Laerm;23678;48.778;9.160;2024-02-28T03:32:16;37.15;32.35;45.17;;
37833;Laerm;23678;48.778;9.160;2024-02-28T03:35:00;37.97;30.89;41.53;;
37833;Laerm;23678;48.778;9.160;2024-02-28T03:37:44;38.05;32.35;42.58;;
37833;Laerm;23678;48.778;9.160;2024-02-28T03:40:27;37.69;31.68;42.88;;
37833;Laerm;23678;48.778;9.160;2024-02-28T03:43:11;37.73;32.35;41.61;;
37833;Laerm;23678;48.778;9.160;2024-02-28T03:45:56;37.52;32.35;42.29;;
37833;Laerm;23678;48.778;9.160;2024-02-28T03:48:40;37.46;31.68;42.88;;
37833;Laerm;23678;48.778;9.160;2024-02-28T03:51:24;37.43;31.68;41.89;;
37833;Laerm;23678;48.778;9.160;2024-02-28T03:54:08;38.61;32.35;43.09;;
37833;Laerm;23678;48.778;9.160;2024-02-28T03:56:53;37.69;31.68;43.49;;
37833;Laerm;23678;48.778;9.160;2024-02-28T03:59:37;37.53;32.35;43.39;;
37833;Laerm;23678;48.778;9.160;2024-02-28T04:02:21;37.68;32.00;42.85;;
37833;Laerm;23678;48.778;9.160;2024-02-28T04:05:05;37.66;32.35;42.98;;
37833;Laerm;23678;48.778;9.160;2024-02-28T04:07:48;38.18;32.35;45.01;;
37833;Laerm;23678;48.778;9.160;2024-02-28T04:10:32;38.03;31.68;43.86;;
37833;Laerm;23678;48.778;9.160;2024-02-28T04:13:17;38.13;32.35;43.90;;
37833;Laerm;23678;48.778;9.160;2024-02-28T04:16:01;37.51;32.35;43.86;;
37833;Laerm;23678;48.778;9.160;2024-02-28T04:18:46;37.80;31.68;43.94;;
37833;Laerm;23678;48.778;9.160;2024-02-28T04:21:30;37.60;31.68;43.63;;
37833;Laerm;23678;48.778;9.160;2024-02-28T04:24:14;37.36;30.89;42.88;;
37833;Laerm;23678;48.778;9.160;2024-02-28T04:26:58;37.69;32.35;41.96;;
37833;Laerm;23678;48.778;9.160;2024-02-28T04:29:43;37.48;31.68;41.96;;
37833;Laerm;23678;48.778;9.160;2024-02-28T04:32:27;38.60;31.68;49.46;;
37833;Laerm;23678;48.778;9.160;2024-02-28T04:35:11;41.33;32.35;54.88;;
37833;Laerm;23678;48.778;9.160;2024-02-28T04:37:54;42.17;33.90;54.98;;
37833;Laerm;23678;48.778;9.160;2024-02-28T04:40:39;42.58;31.68;55.61;;
37833;Laerm;23678;48.778;9.160;2024-02-28T04:43:23;41.70;32.35;55.06;;
37833;Laerm;23678;48.778;9.160;2024-02-28T04:46:07;41.97;29.92;54.92;;
37833;Laerm;23678;48.778;9.160;2024-02-28T04:48:51;41.85;32.35;54.68;;
37833;Laerm;23678;48.778;9.160;2024-02-28T04:51:35;42.13;33.44;55.13;;
37833;Laerm;23678;48.778;9.160;2024-02-28T04:54:19;42.59;33.90;55.85;;
37833;Laerm;23678;48.778;9.160;2024-02-28T04:57:03;42.73;33.09;56.03;;
37833;Laerm;23678;48.778;9.160;2024-02-28T04:59:47;42.30;32.35;56.09;;
37833;Laerm;23678;48.778;9.160;2024-02-28T05:02:31;42.49;33.09;55.43;;
37833;Laerm;23678;48.778;9.160;2024-02-28T05:05:15;42.18;32.93;55.22;;
37833;Laerm;23678;48.778;9.160;2024-02-28T05:07:59;42.17;33.90;55.38;;
37833;Laerm;23678;48.778;9.160;2024-02-28T05:10:43;42.52;32.93;54.64;;
37833;Laerm;23678;48.778;9.160;2024-02-28T05:13:26;42.35;32.35;54.63;;
37833;Laerm;23678;48.778;9.160;2024-02-28T05:16:14;41.37;32.93;54.61;;
37833;Laerm;23678;48.778;9.160;2024-02-28T05:18:58;42.20;32.93;55.03;;
37833;Laerm;23678;48.778;9.160;2024-02-28T05:21:42;42.70;33.90;55.30;;
37833;Laerm;23678;48.778;9.160;2024-02-28T05:24:25;42.18;32.93;53.59;;
37833;Laerm;23678;48.778;9.160;2024-02-28T05:27:09;42.87;33.44;54.82;;
37833;Laerm;23678;48.778;9.160;2024-02-28T05:29:53;42.55;33.90;54.71;;
37833;Laerm;23678;48.778;9.160;2024-02-28T05:32:37;44.48;32.35;59.20;;
37833;Laerm;23678;48.778;9.160;2024-02-28T05:35:21;40.96;34.31;52.00;;
37833;Laerm;23678;48.778;9.160;2024-02-28T05:38:05;42.20;33.90;54.74;;
37833;Laerm;23678;48.778;9.160;2024-02-28T05:40:49;40.57;32.93;48.84;;
37833;Laerm;23678;48.778;9.160;2024-02-28T05:43:33;39.55;34.69;44.27;;
37833;Laerm;23678;48.778;9.160;2024-02-28T05:46:17;40.93;32.93;52.43;;
37833;Laerm;23678;48.778;9.160;2024-02-28T05:49:03;39.65;30.89;47.48;;
37833;Laerm;23678;48.778;9.160;2024-02-28T05:51:47;40.36;33.44;50.04;;
37833;Laerm;23678;48.778;9.160;2024-02-28T05:54:31;39.92;34.34;48.45;;
37833;Laerm;23678;48.778;9.160;2024-02-28T05:57:15;40.53;33.90;50.90;;
37833;Laerm;23678;48.778;9.160;2024-02-28T05:59:58;40.50;33.44;50.57;;
37833;Laerm;23678;48.778;9.160;2024-02-28T06:02:43;40.84;34.69;50.66;;
37833;Laerm;23678;48.778;9.160;2024-02-28T06:05:27;40.67;34.31;52.14;;
37833;Laerm;23678;48.778;9.160;2024-02-28T06:08:11;39.37;32.93;50.90;;
37833;Laerm;23678;48.778;9.160;2024-02-28T06:10:55;41.47;34.31;51.50;;
37833;Laerm;23678;48.778;9.160;2024-02-28T06:13:42;39.44;34.31;47.96;;
37833;Laerm;23678;48.778;9.160;2024-02-28T06:16:26;40.36;33.44;49.27;;
37833;Laerm;23678;48.778;9.160;2024-02-28T06:19:10;40.38;32.93;52.90;;
37833;Laerm;23678;48.778;9.160;2024-02-28T06:21:54;40.01;32.93;48.32;;
37833;Laerm;23678;48.778;9.160;2024-02-28T06:24:38;41.30;34.31;50.45;;
37833;Laerm;23678;48.778;9.160;2024-02-28T06:27:22;40.17;34.69;51.34;;
37833;Laerm;23678;48.778;9.160;2024-02-28T06:30:06;40.94;35.04;55.76;;
37833;Laerm;23678;48.778;9.160;2024-02-28T06:32:50;40.79;34.69;50.68;;
37833;Laerm;23678;48.778;9.160;2024-02-28T06:35:34;40.55;35.04;48.00;;
37833;Laerm;23678;48.778;9.160;2024-02-28T06:38:18;38.66;31.68;44.31;;
37833;Laerm;23678;48.778;9.160;2024-02-28T06:41:05;41.18;35.01;51.10;;
37833;Laerm;23678;48.778;9.160;2024-02-28T06:43:49;41.21;35.94;49.40;;
37833;Laerm;23678;48.778;9.160;2024-02-28T06:46:33;41.81;34.69;52.53;;
37833;Laerm;23678;48.778;9.160;2024-02-28T06:49:17;41.75;35.04;52.77;;
37833;Laerm;23678;48.778;9.160;2024-02-28T06:52:01;39.88;34.31;50.32;;
37833;Laerm;23678;48.778;9.160;2024-02-28T06:54:45;41.03;35.04;50.24;;
37833;Laerm;23678;48.778;9.160;2024-02-28T06:57:29;43.22;34.31;58.57;;
37833;Laerm;23678;48.778;9.160;2024-02-28T07:00:13;39.87;33.90;45.33;;
37833;Laerm;23678;48.778;9.160;2024-02-28T07:03:02;40.75;34.69;51.34;;
37833;Laerm;23678;48.778;9.160;2024-02-28T07:05:47;43.04;35.04;52.73;;
37833;Laerm;23678;48.778;9.160;2024-02-28T07:08:32;47.69;35.36;61.38;;
37833;Laerm;23678;48.778;9.160;2024-02-28T07:11:16;41.28;35.36;51.47;;
37833;Laerm;23678;48.778;9.160;2024-02-28T07:14:00;42.07;34.31;60.06;;
37833;Laerm;23678;48.778;9.160;2024-02-28T07:16:45;39.29;34.34;46.78;;
37833;Laerm;23678;48.778;9.160;2024-02-28T07:19:48;40.35;35.01;47.95;;
37833;Laerm;23678;48.778;9.160;2024-02-28T07:22:34;42.95;35.94;58.31;;
37833;Laerm;23678;48.778;9.160;2024-02-28T07:25:18;47.68;37.88;63.72;;
37833;Laerm;23678;48.778;9.160;2024-02-28T07:28:02;52.43;37.70;71.83;;
37833;Laerm;23678;48.778;9.160;2024-02-28T07:30:46;43.21;35.36;58.23;;
37833;Laerm;23678;48.778;9.160;2024-02-28T07:33:31;42.49;35.94;57.37;;
37833;Laerm;23678;48.778;9.160;2024-02-28T07:36:16;41.27;34.31;51.42;;
37833;Laerm;23678;48.778;9.160;2024-02-28T07:39:00;42.06;34.31;56.76;;
37833;Laerm;23678;48.778;9.160;2024-02-28T07:41:43;42.09;35.36;52.37;;
37833;Laerm;23678;48.778;9.160;2024-02-28T07:44:27;40.80;34.69;60.26;;
37833;Laerm;23678;48.778;9.160;2024-02-28T07:47:14;41.50;34.31;54.11;;
37833;Laerm;23678;48.778;9.160;2024-02-28T07:49:58;40.52;34.69;51.80;;
37833;Laerm;23678;48.778;9.160;2024-02-28T07:52:42;41.96;35.94;49.89;;
37833;Laerm;23678;48.778;9.160;2024-02-28T07:55:27;41.78;34.69;51.62;;
37833;Laerm;23678;48.778;9.160;2024-02-28T07:58:10;41.63;35.36;50.87;;
37833;Laerm;23678;48.778;9.160;2024-02-28T08:00:54;42.21;34.69;52.88;;
37833;Laerm;23678;48.778;9.160;2024-02-28T08:03:38;41.83;35.04;55.37;;
37833;Laerm;23678;48.778;9.160;2024-02-28T08:06:23;41.62;35.94;51.06;;
37833;Laerm;23678;48.778;9.160;2024-02-28T08:09:07;40.61;34.69;50.07;;
37833;Laerm;23678;48.778;9.160;2024-02-28T08:11:52;40.83;35.04;51.36;;
37833;Laerm;23678;48.778;9.160;2024-02-28T08:14:36;40.76;35.36;46.57;;
37833;Laerm;23678;48.778;9.160;2024-02-28T08:17:20;40.40;34.31;52.21;;
37833;Laerm;23678;48.778;9.160;2024-02-28T08:20:04;40.27;34.69;48.83;;
37833;Laerm;23678;48.778;9.160;2024-02-28T08:22:48;41.43;33.90;64.65;;
37833;Laerm;23678;48.778;9.160;2024-02-28T08:25:32;41.77;35.36;49.83;;
37833;Laerm;23678;48.778;9.160;2024-02-28T08:28:16;40.95;35.94;50.16;;
37833;Laerm;23678;48.778;9.160;2024-02-28T08:31:00;41.03;35.04;52.08;;
37833;Laerm;23678;48.778;9.160;2024-02-28T08:33:44;40.27;34.31;49.28;;
37833;Laerm;23678;48.778;9.160;2024-02-28T08:36:27;39.91;34.31;53.69;;
37833;Laerm;23678;48.778;9.160;2024-02-28T08:39:11;41.58;34.69;51.23;;
37833;Laerm;23678;48.778;9.160;2024-02-28T08:41:55;39.88;34.69;46.82;;
37833;Laerm;23678;48.778;9.160;2024-02-28T08:44:39;40.75;35.04;49.27;;
37833;Laerm;23678;48.778;9.160;2024-02-28T08:47:23;39.40;33.90;45.11;;
37833;Laerm;23678;48.778;9.160;2024-02-28T08:50:07;42.78;35.31;56.09;;
37833;Laerm;23678;48.778;9.160;2024-02-28T08:52:51;41.56;34.69;51.32;;
37833;Laerm;23678;48.778;9.160;2024-02-28T08:55:36;39.45;33.90;48.83;;
37833;Laerm;23678;48.778;9.160;2024-02-28T08:58:19;41.01;32.35;51.38;;
37833;Laerm;23678;48.778;9.160;2024-02-28T09:01:03;39.04;31.68;45.99;;
37833;Laerm;23678;48.778;9.160;2024-02-28T09:03:47;40.62;34.31;52.51;;
37833;Laerm;23678;48.778;9.160;2024-02-28T09:06:31;40.61;35.04;48.45;;
37833;Laerm;23678;48.778;9.160;2024-02-28T09:09:15;40.51;33.44;47.76;;
37833;Laerm;23678;48.778;9.160;2024-02-28T09:12:00;44.00;34.69;63.31;;
37833;Laerm;23678;48.778;9.160;2024-02-28T09:14:47;40.44;33.44;49.72;;
37833;Laerm;23678;48.778;9.160;2024-02-28T09:17:38;39.74;34.31;49.39;;
37833;Laerm;23678;48.778;9.160;2024-02-28T09:20:22;41.09;35.04;52.56;;
37833;Laerm;23678;48.778;9.160;2024-02-28T09:23:06;40.72;35.36;55.60;;
37833;Laerm;23678;48.778;9.160;2024-02-28T09:25:50;38.96;33.90;53.90;;
37833;Laerm;23678;48.778;9.160;2024-02-28T09:28:34;39.11;33.44;52.52;;
37833;Laerm;23678;48.778;9.160;2024-02-28T09:31:18;40.71;33.44;47.61;;
37833;Laerm;23678;48.778;9.160;2024-02-28T09:34:02;40.79;34.31;51.80;;
37833;Laerm;23678;48.778;9.160;2024-02-28T09:36:51;43.92;34.69;62.24;;
37833;Laerm;23678;48.778;9.160;2024-02-28T09:39:37;41.09;34.31;55.05;;
37833;Laerm;23678;48.778;9.160;2024-02-28T09:42:21;44.59;34.31;63.12;;
37833;Laerm;23678;48.778;9.160;2024-02-28T09:45:05;42.05;34.31;49.80;;
37833;Laerm;23678;48.778;9.160;2024-02-28T09:47:51;39.93;34.31;46.73;;
37833;Laerm;23678;48.778;9.160;2024-02-28T09:50:36;40.93;34.69;49.36;;
37833;Laerm;23678;48.778;9.160;2024-02-28T09:53:20;41.00;34.31;49.88;;
37833;Laerm;23678;48.778;9.160;2024-02-28T09:56:05;41.71;33.44;56.24;;
37833;Laerm;23678;48.778;9.160;2024-02-28T09:58:50;40.51;34.31;49.30;;
37833;Laerm;23678;48.778;9.160;2024-02-28T10:01:35;39.40;31.68;47.38;;
37833;Laerm;23678;48.778;9.160;2024-02-28T10:04:20;38.89;31.68;47.00;;
37833;Laerm;23678;48.778;9.160;2024-02-28T10:07:11;40.33;33.90;49.80;;
37833;Laerm;23678;48.778;9.160;2024-02-28T10:09:58;41.07;33.90;51.10;;
37833;Laerm;23678;48.778;9.160;2024-02-28T10:12:42;40.11;33.44;56.27;;
37833;Laerm;23678;48.778;9.160;2024-02-28T10:15:26;40.00;33.09;46.23;;
37833;Laerm;23678;48.778;9.160;2024-02-28T10:18:11;40.85;33.90;50.03;;
37833;Laerm;23678;48.778;9.160;2024-02-28T10:20:55;40.49;33.44;47.57;;
37833;Laerm;23678;48.778;9.160;2024-02-28T10:23:39;41.60;32.93;51.61;;
37833;Laerm;23678;48.778;9.160;2024-02-28T10:26:23;40.38;32.93;54.33;;
37833;Laerm;23678;48.778;9.160;2024-02-28T10:29:07;39.76;32.35;50.66;;
37833;Laerm;23678;48.778;9.160;2024-02-28T10:31:51;39.88;33.44;48.70;;
37833;Laerm;23678;48.778;9.160;2024-02-28T10:34:35;39.42;33.90;47.90;;
37833;Laerm;23678;48.778;9.160;2024-02-28T10:37:21;39.47;32.93;48.55;;
37833;Laerm;23678;48.778;9.160;2024-02-28T10:40:06;40.41;32.35;49.79;;
37833;Laerm;23678;48.778;9.160;2024-02-28T10:42:50;40.88;31.68;53.63;;
37833;Laerm;23678;48.778;9.160;2024-02-28T10:45:35;39.68;33.90;48.20;;
37833;Laerm;23678;48.778;9.160;2024-02-28T10:48:19;40.25;32.93;52.28;;
37833;Laerm;23678;48.778;9.160;2024-02-28T10:51:04;41.31;34.31;52.02;;
37833;Laerm;23678;48.778;9.160;2024-02-28T10:53:49;41.53;34.69;48.43;;
37833;Laerm;23678;48.778;9.160;2024-02-28T10:56:34;41.05;34.31;55.61;;
37833;Laerm;23678;48.778;9.160;2024-02-28T10:59:18;41.99;35.66;57.11;;
37833;Laerm;23678;48.778;9.160;2024-02-28T11:02:03;42.70;34.69;56.91;;
37833;Laerm;23678;48.778;9.160;2024-02-28T11:04:47;41.69;34.31;51.99;;
37833;Laerm;23678;48.778;9.160;2024-02-28T11:07:31;41.78;34.31;51.71;;
37833;Laerm;23678;48.778;9.160;2024-02-28T11:10:15;41.44;31.68;52.60;;
37833;Laerm;23678;48.778;9.160;2024-02-28T11:12:58;40.33;31.68;49.89;;
37833;Laerm;23678;48.778;9.160;2024-02-28T11:15:43;40.64;32.93;49.21;;
37833;Laerm;23678;48.778;9.160;2024-02-28T11:18:28;40.02;33.44;49.20;;
37833;Laerm;23678;48.778;9.160;2024-02-28T11:21:15;38.88;32.35;46.87;;
37833;Laerm;23678;48.778;9.160;2024-02-28T11:24:00;39.67;32.93;51.75;;
37833;Laerm;23678;48.778;9.160;2024-02-28T11:26:44;41.29;32.93;49.06;;
37833;Laerm;23678;48.778;9.160;2024-02-28T11:29:28;40.98;31.68;50.35;;
37833;Laerm;23678;48.778;9.160;2024-02-28T11:32:13;40.25;33.44;54.68;;
37833;Laerm;23678;48.778;9.160;2024-02-28T11:35:00;42.87;33.44;56.11;;
37833;Laerm;23678;48.778;9.160;2024-02-28T11:37:47;39.24;33.44;46.91;;
37833;Laerm;23678;48.778;9.160;2024-02-28T11:40:31;39.61;32.93;47.70;;
37833;Laerm;23678;48.778;9.160;2024-02-28T11:43:15;41.64;33.90;58.37;;
37833;Laerm;23678;48.778;9.160;2024-02-28T11:46:07;39.54;33.44;52.73;;
37833;Laerm;23678;48.778;9.160;2024-02-28T11:48:51;40.38;34.31;50.74;;
37833;Laerm;23678;48.778;9.160;2024-02-28T11:51:36;40.76;33.44;50.18;;
37833;Laerm;23678;48.778;9.160;2024-02-28T11:54:20;40.97;33.44;54.80;;
37833;Laerm;23678;48.778;9.160;2024-02-28T11:57:04;39.13;30.89;47.20;;
37833;Laerm;23678;48.778;9.160;2024-02-28T11:59:47;39.94;32.93;50.38;;
37833;Laerm;23678;48.778;9.160;2024-02-28T12:02:32;39.89;33.44;50.24;;
37833;Laerm;23678;48.778;9.160;2024-02-28T12:05:16;39.97;31.68;46.61;;
37833;Laerm;23678;48.778;9.160;2024-02-28T12:08:00;40.10;32.35;54.54;;
37833;Laerm;23678;48.778;9.160;2024-02-28T12:10:44;39.14;32.93;45.01;;
37833;Laerm;23678;48.778;9.160;2024-02-28T12:13:28;39.95;32.93;48.45;;
37833;Laerm;23678;48.778;9.160;2024-02-28T12:16:12;40.15;32.93;52.27;;
37833;Laerm;23678;48.778;9.160;2024-02-28T12:18:56;39.53;32.35;53.36;;
37833;Laerm;23678;48.778;9.160;2024-02-28T12:21:41;41.09;32.35;53.57;;
37833;Laerm;23678;48.778;9.160;2024-02-28T12:24:24;40.89;33.09;52.63;;
37833;Laerm;23678;48.778;9.160;2024-02-28T12:27:09;38.94;32.93;45.07;;
37833;Laerm;23678;48.778;9.160;2024-02-28T12:29:53;40.51;35.04;53.39;;
37833;Laerm;23678;48.778;9.160;2024-02-28T12:32:37;40.76;31.68;55.22;;
37833;Laerm;23678;48.778;9.160;2024-02-28T12:35:20;39.03;31.68;50.00;;
37833;Laerm;23678;48.778;9.160;2024-02-28T12:38:04;39.23;29.92;52.68;;
37833;Laerm;23678;48.778;9.160;2024-02-28T12:40:49;40.27;29.92;48.29;;
37833;Laerm;23678;48.778;9.160;2024-02-28T12:43:33;40.54;29.92;56.40;;
37833;Laerm;23678;48.778;9.160;2024-02-28T12:46:17;39.80;30.89;53.11;;
37833;Laerm;23678;48.778;9.160;2024-02-28T12:49:01;38.52;32.93;47.40;;
37833;Laerm;23678;48.778;9.160;2024-02-28T12:51:45;42.56;35.04;52.54;;
37833;Laerm;23678;48.778;9.160;2024-02-28T12:54:30;43.39;34.31;52.22;;
37833;Laerm;23678;48.778;9.160;2024-02-28T12:57:13;44.22;36.20;53.95;;
37833;Laerm;23678;48.778;9.160;2024-02-28T13:00:00;41.53;32.35;52.68;;
37833;Laerm;23678;48.778;9.160;2024-02-28T13:02:45;38.15;31.68;43.44;;
37833;Laerm;23678;48.778;9.160;2024-02-28T13:05:29;41.64;33.90;54.18;;
37833;Laerm;23678;48.778;9.160;2024-02-28T13:08:13;39.09;32.35;50.01;;
37833;Laerm;23678;48.778;9.160;2024-02-28T13:10:58;41.78;33.44;52.06;;
37833;Laerm;23678;48.778;9.160;2024-02-28T13:13:42;39.79;33.44;49.89;;
37833;Laerm;23678;48.778;9.160;2024-02-28T13:16:26;41.18;32.35;51.58;;
37833;Laerm;23678;48.778;9.160;2024-02-28T13:19:10;41.52;33.44;54.58;;
37833;Laerm;23678;48.778;9.160;2024-02-28T13:21:54;40.41;33.44;50.33;;
37833;Laerm;23678;48.778;9.160;2024-02-28T13:24:38;42.80;32.35;57.44;;
37833;Laerm;23678;48.778;9.160;2024-02-28T13:27:22;40.28;32.35;58.45;;
37833;Laerm;23678;48.778;9.160;2024-02-28T13:30:06;39.37;33.44;56.31;;
37833;Laerm;23678;48.778;9.160;2024-02-28T13:32:50;37.95;31.68;46.05;;
37833;Laerm;23678;48.778;9.160;2024-02-28T13:35:35;41.33;33.44;55.91;;
37833;Laerm;23678;48.778;9.160;2024-02-28T13:38:19;38.89;32.93;50.99;;
37833;Laerm;23678;48.778;9.160;2024-02-28T13:41:04;40.74;32.93;51.71;;
37833;Laerm;23678;48.778;9.160;2024-02-28T13:43:48;38.75;32.35;46.07;;
37833;Laerm;23678;48.778;9.160;2024-02-28T13:46:32;38.78;33.44;52.68;;
37833;Laerm;23678;48.778;9.160;2024-02-28T13:49:16;40.71;33.09;50.55;;
37833;Laerm;23678;48.778;9.160;2024-02-28T13:52:01;39.66;32.35;49.40;;
37833;Laerm;23678;48.778;9.160;2024-02-28T13:54:45;38.57;30.89;44.27;;
37833;Laerm;23678;48.778;9.160;2024-02-28T13:57:31;39.31;32.93;49.83;;
37833;Laerm;23678;48.778;9.160;2024-02-28T14:00:15;40.35;35.04;47.63;;
37833;Laerm;23678;48.778;9.160;2024-02-28T14:02:58;41.23;33.90;53.55;;
37833;Laerm;23678;48.778;9.160;2024-02-28T14:05:42;39.41;32.58;47.12;;
37833;Laerm;23678;48.778;9.160;2024-02-28T14:08:27;41.62;34.31;58.35;;
37833;Laerm;23678;48.778;9.160;2024-02-28T14:11:13;39.86;32.35;50.47;;
37833;Laerm;23678;48.778;9.160;2024-02-28T14:13:59;39.20;32.58;47.22;;
37833;Laerm;23678;48.778;9.160;2024-02-28T14:16:43;41.09;33.90;48.52;;
37833;Laerm;23678;48.778;9.160;2024-02-28T14:19:27;40.15;32.93;50.00;;
37833;Laerm;23678;48.778;9.160;2024-02-28T14:22:11;40.80;34.69;50.66;;
37833;Laerm;23678;48.778;9.160;2024-02-28T14:24:55;40.41;34.31;49.44;;
37833;Laerm;23678;48.778;9.160;2024-02-28T14:27:40;41.78;35.66;51.67;;
37833;Laerm;23678;48.778;9.160;2024-02-28T14:30:24;40.23;33.90;50.92;;
37833;Laerm;23678;48.778;9.160;2024-02-28T14:33:09;41.38;34.31;51.06;;
37833;Laerm;23678;48.778;9.160;2024-02-28T14:35:55;40.81;33.44;52.71;;
37833;Laerm;23678;48.778;9.160;2024-02-28T14:38:39;41.70;33.55;57.03;;
37833;Laerm;23678;48.778;9.160;2024-02-28T14:41:23;39.59;33.90;50.78;;
37833;Laerm;23678;48.778;9.160;2024-02-28T14:44:09;39.81;34.31;48.23;;
37833;Laerm;23678;48.778;9.160;2024-02-28T14:46:53;40.04;32.35;49.10;;
37833;Laerm;23678;48.778;9.160;2024-02-28T14:49:39;40.86;32.93;47.98;;
37833;Laerm;23678;48.778;9.160;2024-02-28T14:52:23;42.43;34.31;54.20;;
37833;Laerm;23678;48.778;9.160;2024-02-28T14:55:08;42.85;33.44;59.15;;
37833;Laerm;23678;48.778;9.160;2024-02-28T14:57:53;41.95;35.66;51.48;;
37833;Laerm;23678;48.778;9.160;2024-02-28T15:00:37;40.54;33.90;48.21;;
37833;Laerm;23678;48.778;9.160;2024-02-28T15:03:21;39.67;33.44;55.38;;
37833;Laerm;23678;48.778;9.160;2024-02-28T15:06:06;42.01;35.04;51.53;;
37833;Laerm;23678;48.778;9.160;2024-02-28T15:08:50;41.45;34.31;50.92;;
37833;Laerm;23678;48.778;9.160;2024-02-28T15:11:35;40.36;34.31;49.56;;
37833;Laerm;23678;48.778;9.160;2024-02-28T15:14:19;41.00;33.90;56.17;;
37833;Laerm;23678;48.778;9.160;2024-02-28T15:17:03;41.14;33.44;49.89;;
37833;Laerm;23678;48.778;9.160;2024-02-28T15:19:47;40.11;32.35;49.50;;